sensor_id;sensor_type;location;lat;lon;timestamp;P1;durP1;ratioP1;P2;durP2;ratioP2
23678;SDS011;12016;51.668;6.874;2022-08-24T00:02:53;4.05;;;2.33;;
23678;SDS011;12016;51.668;6.874;2022-08-24T00:08:56;3.30;;;2.10;;
23678;SDS011;12016;51.668;6.874;2022-08-24T00:14:59;3.05;;;2.38;;
23678;SDS011;12016;51.668;6.874;2022-08-24T00:21:02;3.53;;;2.28;;
23678;SDS011;12016;51.668;6.874;2022-08-24T00:27:06;2.30;;;2.10;;
23678;SDS011;12016;51.668;6.874;2022-08-24T00:33:08;3.33;;;2.60;;
23678;SDS011;12016;51.668;6.874;2022-08-24T00:39:10;3.25;;;2.40;;
23678;SDS011;12016;51.668;6.874;2022-08-24T00:45:13;4.03;;;2.38;;
23678;SDS011;12016;51.668;6.874;2022-08-24T00:51:18;2.72;;;2.50;;
23678;SDS011;12016;51.668;6.874;2022-08-24T00:57:26;4.72;;;2.30;;
23678;SDS011;12016;51.668;6.874;2022-08-24T01:03:32;4.90;;;2.42;;
23678;SDS011;12016;51.668;6.874;2022-08-24T01:09:38;2.53;;;2.08;;
23678;SDS011;12016;51.668;6.874;2022-08-24T01:15:41;5.18;;;2.72;;
23678;SDS011;12016;51.668;6.874;2022-08-24T01:28:18;2.92;;;2.10;;
23678;SDS011;12016;51.668;6.874;2022-08-24T01:34:20;4.43;;;2.35;;
23678;SDS011;12016;51.668;6.874;2022-08-24T01:40:25;5.00;;;2.20;;
23678;SDS011;12016;51.668;6.874;2022-08-24T01:46:36;3.00;;;2.65;;
23678;SDS011;12016;51.668;6.874;2022-08-24T01:52:39;3.78;;;2.50;;
23678;SDS011;12016;51.668;6.874;2022-08-24T01:59:03;3.70;;;2.90;;
23678;SDS011;12016;51.668;6.874;2022-08-24T02:05:06;3.50;;;2.70;;
23678;SDS011;12016;51.668;6.874;2022-08-24T02:11:10;4.85;;;2.28;;
23678;SDS011;12016;51.668;6.874;2022-08-24T02:17:14;5.72;;;2.42;;
23678;SDS011;12016;51.668;6.874;2022-08-24T02:23:17;3.08;;;2.50;;
23678;SDS011;12016;51.668;6.874;2022-08-24T02:29:19;3.17;;;2.55;;
23678;SDS011;12016;51.668;6.874;2022-08-24T02:35:23;4.53;;;2.70;;
23678;SDS011;12016;51.668;6.874;2022-08-24T02:41:25;3.38;;;2.70;;
23678;SDS011;12016;51.668;6.874;2022-08-24T02:47:28;5.50;;;2.70;;
23678;SDS011;12016;51.668;6.874;2022-08-24T02:53:31;2.60;;;2.30;;
23678;SDS011;12016;51.668;6.874;2022-08-24T02:59:33;3.63;;;2.60;;
23678;SDS011;12016;51.668;6.874;2022-08-24T03:05:36;3.17;;;2.45;;
23678;SDS011;12016;51.668;6.874;2022-08-24T03:11:40;3.80;;;2.60;;
23678;SDS011;12016;51.668;6.874;2022-08-24T03:17:43;2.90;;;2.60;;
23678;SDS011;12016;51.668;6.874;2022-08-24T03:23:45;3.60;;;2.60;;
23678;SDS011;12016;51.668;6.874;2022-08-24T03:29:47;3.72;;;2.60;;
23678;SDS011;12016;51.668;6.874;2022-08-24T03:35:49;3.97;;;2.70;;
23678;SDS011;12016;51.668;6.874;2022-08-24T03:41:54;3.13;;;2.70;;
23678;SDS011;12016;51.668;6.874;2022-08-24T03:47:58;4.28;;;3.03;;
23678;SDS011;12016;51.668;6.874;2022-08-24T03:54:01;5.38;;;2.67;;
23678;SDS011;12016;51.668;6.874;2022-08-24T04:00:05;2.53;;;2.30;;
23678;SDS011;12016;51.668;6.874;2022-08-24T04:12:18;3.35;;;2.78;;
23678;SDS011;12016;51.668;6.874;2022-08-24T04:18:20;6.00;;;2.95;;
23678;SDS011;12016;51.668;6.874;2022-08-24T04:24:25;3.08;;;2.70;;
23678;SDS011;12016;51.668;6.874;2022-08-24T04:30:27;5.93;;;2.72;;
23678;SDS011;12016;51.668;6.874;2022-08-24T04:36:41;4.82;;;2.90;;
23678;SDS011;12016;51.668;6.874;2022-08-24T04:42:46;4.80;;;3.20;;
23678;SDS011;12016;51.668;6.874;2022-08-24T04:48:48;3.80;;;3.17;;
23678;SDS011;12016;51.668;6.874;2022-08-24T04:54:50;3.85;;;3.00;;
23678;SDS011;12016;51.668;6.874;2022-08-24T05:00:56;3.53;;;2.95;;
23678;SDS011;12016;51.668;6.874;2022-08-24T05:06:58;5.80;;;3.35;;
23678;SDS011;12016;51.668;6.874;2022-08-24T05:13:00;3.95;;;3.33;;
23678;SDS011;12016;51.668;6.874;2022-08-24T05:19:04;5.68;;;3.30;;
23678;SDS011;12016;51.668;6.874;2022-08-24T05:25:09;4.32;;;2.90;;
23678;SDS011;12016;51.668;6.874;2022-08-24T05:31:16;5.35;;;2.97;;
23678;SDS011;12016;51.668;6.874;2022-08-24T05:37:20;3.78;;;3.22;;
23678;SDS011;12016;51.668;6.874;2022-08-24T05:43:42;4.15;;;2.72;;
23678;SDS011;12016;51.668;6.874;2022-08-24T05:49:45;5.13;;;3.10;;
23678;SDS011;12016;51.668;6.874;2022-08-24T05:55:49;5.97;;;3.42;;
23678;SDS011;12016;51.668;6.874;2022-08-24T06:01:51;4.65;;;3.20;;
23678;SDS011;12016;51.668;6.874;2022-08-24T06:07:54;11.68;;;5.97;;
23678;SDS011;12016;51.668;6.874;2022-08-24T06:13:57;8.25;;;6.20;;
23678;SDS011;12016;51.668;6.874;2022-08-24T06:20:04;8.55;;;4.70;;
23678;SDS011;12016;51.668;6.874;2022-08-24T06:26:08;10.38;;;4.78;;
23678;SDS011;12016;51.668;6.874;2022-08-24T06:32:30;8.38;;;4.80;;
23678;SDS011;12016;51.668;6.874;2022-08-24T06:38:33;9.02;;;4.60;;
23678;SDS011;12016;51.668;6.874;2022-08-24T06:44:38;8.40;;;4.85;;
23678;SDS011;12016;51.668;6.874;2022-08-24T06:50:49;7.07;;;5.00;;
23678;SDS011;12016;51.668;6.874;2022-08-24T06:56:52;12.48;;;5.50;;
23678;SDS011;12016;51.668;6.874;2022-08-24T07:02:56;10.65;;;5.80;;
23678;SDS011;12016;51.668;6.874;2022-08-24T07:09:00;8.90;;;5.93;;
23678;SDS011;12016;51.668;6.874;2022-08-24T07:15:04;11.65;;;6.50;;
23678;SDS011;12016;51.668;6.874;2022-08-24T07:21:06;11.98;;;5.60;;
23678;SDS011;12016;51.668;6.874;2022-08-24T07:27:19;10.90;;;5.90;;
23678;SDS011;12016;51.668;6.874;2022-08-24T07:33:22;11.48;;;5.30;;
23678;SDS011;12016;51.668;6.874;2022-08-24T07:39:25;9.90;;;5.53;;
23678;SDS011;12016;51.668;6.874;2022-08-24T07:45:28;10.85;;;4.32;;
23678;SDS011;12016;51.668;6.874;2022-08-24T07:51:40;9.97;;;4.33;;
23678;SDS011;12016;51.668;6.874;2022-08-24T07:57:43;12.35;;;4.00;;
23678;SDS011;12016;51.668;6.874;2022-08-24T08:03:47;7.90;;;3.42;;
23678;SDS011;12016;51.668;6.874;2022-08-24T08:09:50;8.65;;;4.90;;
23678;SDS011;12016;51.668;6.874;2022-08-24T08:15:53;11.40;;;3.30;;
23678;SDS011;12016;51.668;6.874;2022-08-24T08:21:57;9.73;;;3.20;;
23678;SDS011;12016;51.668;6.874;2022-08-24T08:28:40;10.10;;;2.70;;
23678;SDS011;12016;51.668;6.874;2022-08-24T08:34:43;8.02;;;2.92;;
23678;SDS011;12016;51.668;6.874;2022-08-24T08:40:59;8.95;;;3.00;;
23678;SDS011;12016;51.668;6.874;2022-08-24T08:54:13;4.63;;;2.67;;
23678;SDS011;12016;51.668;6.874;2022-08-24T09:00:54;9.98;;;2.92;;
23678;SDS011;12016;51.668;6.874;2022-08-24T09:19:38;4.97;;;2.00;;
23678;SDS011;12016;51.668;6.874;2022-08-24T09:44:43;2.13;;;1.35;;
23678;SDS011;12016;51.668;6.874;2022-08-24T09:57:42;1.25;;;0.90;;
23678;SDS011;12016;51.668;6.874;2022-08-24T10:04:19;3.10;;;1.80;;
23678;SDS011;12016;51.668;6.874;2022-08-24T10:10:36;1.50;;;1.13;;
23678;SDS011;12016;51.668;6.874;2022-08-24T10:23:37;1.90;;;1.17;;
23678;SDS011;12016;51.668;6.874;2022-08-24T10:43:17;2.17;;;1.30;;
23678;SDS011;12016;51.668;6.874;2022-08-24T10:55:41;2.78;;;1.38;;
23678;SDS011;12016;51.668;6.874;2022-08-24T11:08:18;4.35;;;2.60;;
23678;SDS011;12016;51.668;6.874;2022-08-24T11:14:22;1.80;;;1.40;;
23678;SDS011;12016;51.668;6.874;2022-08-24T11:20:32;2.20;;;1.23;;
23678;SDS011;12016;51.668;6.874;2022-08-24T11:26:53;2.10;;;1.00;;
23678;SDS011;12016;51.668;6.874;2022-08-24T11:33:27;1.00;;;0.90;;
23678;SDS011;12016;51.668;6.874;2022-08-24T11:39:46;0.60;;;0.60;;
23678;SDS011;12016;51.668;6.874;2022-08-24T11:45:56;1.67;;;0.80;;
23678;SDS011;12016;51.668;6.874;2022-08-24T11:52:09;2.20;;;0.85;;
23678;SDS011;12016;51.668;6.874;2022-08-24T11:58:22;6.50;;;0.90;;
23678;SDS011;12016;51.668;6.874;2022-08-24T12:04:50;1.23;;;0.80;;
23678;SDS011;12016;51.668;6.874;2022-08-24T12:11:22;1.65;;;0.95;;
23678;SDS011;12016;51.668;6.874;2022-08-24T12:24:14;1.92;;;0.80;;
23678;SDS011;12016;51.668;6.874;2022-08-24T12:30:24;1.67;;;0.70;;
23678;SDS011;12016;51.668;6.874;2022-08-24T12:36:29;1.92;;;0.70;;
23678;SDS011;12016;51.668;6.874;2022-08-24T12:42:49;1.67;;;0.80;;
23678;SDS011;12016;51.668;6.874;2022-08-24T12:48:57;1.40;;;0.68;;
23678;SDS011;12016;51.668;6.874;2022-08-24T12:55:10;2.90;;;0.77;;
23678;SDS011;12016;51.668;6.874;2022-08-24T13:01:28;1.10;;;0.63;;
23678;SDS011;12016;51.668;6.874;2022-08-24T13:07:40;1.30;;;0.65;;
23678;SDS011;12016;51.668;6.874;2022-08-24T13:14:19;1.38;;;0.55;;
23678;SDS011;12016;51.668;6.874;2022-08-24T13:20:15;1.15;;;0.60;;
23678;SDS011;12016;51.668;6.874;2022-08-24T13:26:24;1.45;;;0.60;;
23678;SDS011;12016;51.668;6.874;2022-08-24T13:32:31;2.03;;;0.90;;
23678;SDS011;12016;51.668;6.874;2022-08-24T13:44:48;2.27;;;0.90;;
23678;SDS011;12016;51.668;6.874;2022-08-24T13:51:19;2.95;;;1.17;;
23678;SDS011;12016;51.668;6.874;2022-08-24T14:10:00;2.67;;;1.40;;
23678;SDS011;12016;51.668;6.874;2022-08-24T14:16:12;2.10;;;1.20;;
23678;SDS011;12016;51.668;6.874;2022-08-24T14:35:18;2.47;;;1.23;;
23678;SDS011;12016;51.668;6.874;2022-08-24T15:00:20;2.58;;;1.40;;
23678;SDS011;12016;51.668;6.874;2022-08-24T15:12:53;3.20;;;1.30;;
23678;SDS011;12016;51.668;6.874;2022-08-24T15:19:05;1.73;;;1.50;;
23678;SDS011;12016;51.668;6.874;2022-08-24T15:31:30;4.25;;;1.70;;
23678;SDS011;12016;51.668;6.874;2022-08-24T15:37:34;2.60;;;1.48;;
23678;SDS011;12016;51.668;6.874;2022-08-24T15:44:02;3.15;;;1.50;;
23678;SDS011;12016;51.668;6.874;2022-08-24T15:50:28;2.85;;;1.55;;
23678;SDS011;12016;51.668;6.874;2022-08-24T15:56:39;4.95;;;1.30;;
23678;SDS011;12016;51.668;6.874;2022-08-24T16:02:48;2.58;;;1.40;;
23678;SDS011;12016;51.668;6.874;2022-08-24T16:15:22;1.52;;;1.33;;
23678;SDS011;12016;51.668;6.874;2022-08-24T16:21:29;2.00;;;1.35;;
23678;SDS011;12016;51.668;6.874;2022-08-24T16:27:52;1.80;;;1.20;;
23678;SDS011;12016;51.668;6.874;2022-08-24T16:34:07;1.98;;;1.42;;
23678;SDS011;12016;51.668;6.874;2022-08-24T16:40:20;2.22;;;1.50;;
23678;SDS011;12016;51.668;6.874;2022-08-24T16:46:23;2.30;;;1.40;;
23678;SDS011;12016;51.668;6.874;2022-08-24T16:52:26;4.60;;;1.75;;
23678;SDS011;12016;51.668;6.874;2022-08-24T16:58:29;3.08;;;1.60;;
23678;SDS011;12016;51.668;6.874;2022-08-24T17:04:33;4.47;;;1.40;;
23678;SDS011;12016;51.668;6.874;2022-08-24T17:10:35;1.55;;;1.25;;
23678;SDS011;12016;51.668;6.874;2022-08-24T17:16:38;4.97;;;1.67;;
23678;SDS011;12016;51.668;6.874;2022-08-24T17:22:41;2.67;;;1.50;;
23678;SDS011;12016;51.668;6.874;2022-08-24T17:28:43;2.97;;;1.40;;
23678;SDS011;12016;51.668;6.874;2022-08-24T17:34:48;4.25;;;1.70;;
23678;SDS011;12016;51.668;6.874;2022-08-24T17:40:50;3.53;;;1.52;;
23678;SDS011;12016;51.668;6.874;2022-08-24T17:46:53;3.15;;;1.20;;
23678;SDS011;12016;51.668;6.874;2022-08-24T17:52:58;1.75;;;1.33;;
23678;SDS011;12016;51.668;6.874;2022-08-24T17:59:00;2.30;;;1.33;;
23678;SDS011;12016;51.668;6.874;2022-08-24T18:05:21;2.83;;;1.40;;
23678;SDS011;12016;51.668;6.874;2022-08-24T18:11:25;3.95;;;1.40;;
23678;SDS011;12016;51.668;6.874;2022-08-24T18:17:47;4.70;;;1.30;;
23678;SDS011;12016;51.668;6.874;2022-08-24T18:23:52;4.88;;;1.50;;
23678;SDS011;12016;51.668;6.874;2022-08-24T18:29:58;2.25;;;1.38;;
23678;SDS011;12016;51.668;6.874;2022-08-24T18:36:02;2.93;;;1.67;;
23678;SDS011;12016;51.668;6.874;2022-08-24T18:42:05;3.47;;;1.50;;
23678;SDS011;12016;51.668;6.874;2022-08-24T18:48:08;1.65;;;1.45;;
23678;SDS011;12016;51.668;6.874;2022-08-24T18:54:11;3.47;;;1.55;;
23678;SDS011;12016;51.668;6.874;2022-08-24T19:00:19;3.33;;;1.50;;
23678;SDS011;12016;51.668;6.874;2022-08-24T19:06:21;2.42;;;1.50;;
23678;SDS011;12016;51.668;6.874;2022-08-24T19:12:26;4.18;;;1.70;;
23678;SDS011;12016;51.668;6.874;2022-08-24T19:18:29;2.28;;;1.58;;
23678;SDS011;12016;51.668;6.874;2022-08-24T19:24:32;4.55;;;2.00;;
23678;SDS011;12016;51.668;6.874;2022-08-24T19:30:34;2.05;;;1.60;;
23678;SDS011;12016;51.668;6.874;2022-08-24T19:36:36;2.03;;;1.52;;
23678;SDS011;12016;51.668;6.874;2022-08-24T19:42:38;3.25;;;1.73;;
23678;SDS011;12016;51.668;6.874;2022-08-24T19:48:40;3.22;;;1.77;;
23678;SDS011;12016;51.668;6.874;2022-08-24T19:54:43;4.35;;;1.98;;
23678;SDS011;12016;51.668;6.874;2022-08-24T20:00:48;4.22;;;1.80;;
23678;SDS011;12016;51.668;6.874;2022-08-24T20:06:56;2.95;;;2.00;;
23678;SDS011;12016;51.668;6.874;2022-08-24T20:12:59;1.92;;;1.73;;
23678;SDS011;12016;51.668;6.874;2022-08-24T20:19:02;4.28;;;2.03;;
23678;SDS011;12016;51.668;6.874;2022-08-24T20:25:05;6.70;;;2.17;;
23678;SDS011;12016;51.668;6.874;2022-08-24T20:31:08;2.25;;;1.88;;
23678;SDS011;12016;51.668;6.874;2022-08-24T20:37:12;3.25;;;2.00;;
23678;SDS011;12016;51.668;6.874;2022-08-24T20:43:18;3.87;;;1.90;;
23678;SDS011;12016;51.668;6.874;2022-08-24T20:49:22;3.33;;;1.85;;
23678;SDS011;12016;51.668;6.874;2022-08-24T20:55:27;2.97;;;2.00;;
23678;SDS011;12016;51.668;6.874;2022-08-24T21:01:30;4.57;;;2.20;;
23678;SDS011;12016;51.668;6.874;2022-08-24T21:07:32;3.13;;;2.20;;
23678;SDS011;12016;51.668;6.874;2022-08-24T21:13:35;4.13;;;2.30;;
23678;SDS011;12016;51.668;6.874;2022-08-24T21:19:37;6.47;;;2.00;;
23678;SDS011;12016;51.668;6.874;2022-08-24T21:25:39;2.90;;;1.95;;
23678;SDS011;12016;51.668;6.874;2022-08-24T21:31:41;3.13;;;2.10;;
23678;SDS011;12016;51.668;6.874;2022-08-24T21:38:03;4.45;;;2.17;;
23678;SDS011;12016;51.668;6.874;2022-08-24T21:44:05;5.68;;;2.40;;
23678;SDS011;12016;51.668;6.874;2022-08-24T21:50:08;2.13;;;1.92;;
23678;SDS011;12016;51.668;6.874;2022-08-24T21:56:10;3.03;;;2.17;;
23678;SDS011;12016;51.668;6.874;2022-08-24T22:02:13;3.63;;;2.20;;
23678;SDS011;12016;51.668;6.874;2022-08-24T22:08:16;2.42;;;2.00;;
23678;SDS011;12016;51.668;6.874;2022-08-24T22:14:19;3.38;;;2.00;;
23678;SDS011;12016;51.668;6.874;2022-08-24T22:20:22;5.00;;;2.20;;
23678;SDS011;12016;51.668;6.874;2022-08-24T22:26:25;2.92;;;2.10;;
23678;SDS011;12016;51.668;6.874;2022-08-24T22:32:29;3.58;;;2.15;;
23678;SDS011;12016;51.668;6.874;2022-08-24T22:38:31;4.30;;;2.10;;
23678;SDS011;12016;51.668;6.874;2022-08-24T22:44:33;2.47;;;2.20;;
23678;SDS011;12016;51.668;6.874;2022-08-24T22:50:36;2.45;;;2.08;;
23678;SDS011;12016;51.668;6.874;2022-08-24T22:56:39;5.78;;;2.33;;
23678;SDS011;12016;51.668;6.874;2022-08-24T23:02:44;2.55;;;2.22;;
23678;SDS011;12016;51.668;6.874;2022-08-24T23:08:46;3.63;;;2.58;;
23678;SDS011;12016;51.668;6.874;2022-08-24T23:14:48;3.35;;;2.40;;
23678;SDS011;12016;51.668;6.874;2022-08-24T23:20:52;3.92;;;2.45;;
23678;SDS011;12016;51.668;6.874;2022-08-24T23:26:55;5.10;;;2.60;;
23678;SDS011;12016;51.668;6.874;2022-08-24T23:32:57;3.42;;;2.47;;
23678;SDS011;12016;51.668;6.874;2022-08-24T23:38:59;4.13;;;2.22;;
23678;SDS011;12016;51.668;6.874;2022-08-24T23:45:01;3.80;;;2.65;;
23678;SDS011;12016;51.668;6.874;2022-08-24T23:51:07;3.92;;;2.60;;
23678;SDS011;12016;51.668;6.874;2022-08-24T23:57:10;3.58;;;2.45;;
